createdAt,value
2019-02-06T00:00:05.099Z,910.93
2019-02-06T00:01:04.962Z,910.95
2019-02-06T00:02:04.958Z,910.95
2019-02-06T00:03:04.914Z,910.94
2019-02-06T00:04:05.188Z,910.97
2019-02-06T00:05:14.115Z,910.97
2019-02-06T00:06:04.853Z,910.99
2019-02-06T00:07:04.804Z,910.98
2019-02-06T00:08:04.759Z,910.99
2019-02-06T00:09:05.251Z,911.02
2019-02-06T00:10:04.687Z,911.01
2019-02-06T00:11:04.688Z,911.02
2019-02-06T00:12:04.645Z,911.00
2019-02-06T00:13:04.615Z,911.02
2019-02-06T00:14:04.571Z,911.04
2019-02-06T00:15:04.543Z,911.09
2019-02-06T00:16:04.515Z,911.07
2019-02-06T00:17:04.494Z,911.08
2019-02-06T00:18:04.436Z,911.09
2019-02-06T00:19:04.399Z,911.16
2019-02-06T00:20:04.358Z,911.16
2019-02-06T00:21:04.369Z,911.18
2019-02-06T00:22:05.172Z,911.17
2019-02-06T00:23:04.283Z,911.15
2019-02-06T00:24:04.227Z,911.21
2019-02-06T00:25:04.233Z,911.24
2019-02-06T00:26:04.204Z,911.23
2019-02-06T00:27:04.148Z,911.24
2019-02-06T00:28:04.118Z,911.26
2019-02-06T00:29:04.091Z,911.24
2019-02-06T00:30:04.049Z,911.26
2019-02-06T00:31:04.045Z,911.25
2019-02-06T00:32:06.998Z,911.29
2019-02-06T00:33:04.120Z,911.32
2019-02-06T00:34:03.932Z,911.33
2019-02-06T00:35:03.896Z,911.33
2019-02-06T00:36:04.179Z,911.40
2019-02-06T00:37:03.832Z,911.42
2019-02-06T00:38:05.438Z,911.51
2019-02-06T00:39:03.939Z,911.50
2019-02-06T00:40:03.705Z,911.52
2019-02-06T00:41:03.850Z,911.55
2019-02-06T00:42:03.689Z,911.55
2019-02-06T00:43:03.634Z,911.61
2019-02-06T00:44:03.593Z,911.60
2019-02-06T00:45:03.584Z,911.62
2019-02-06T00:46:03.535Z,911.66
2019-02-06T00:47:03.509Z,911.66
2019-02-06T00:48:03.480Z,911.69
2019-02-06T00:49:03.441Z,911.70
2019-02-06T00:50:03.407Z,911.71
2019-02-06T00:51:03.434Z,911.73
2019-02-06T00:52:03.347Z,911.72
2019-02-06T00:53:03.490Z,911.79
2019-02-06T00:54:03.349Z,911.78
2019-02-06T00:55:03.269Z,911.78
2019-02-06T00:56:03.242Z,911.81
2019-02-06T00:57:03.392Z,911.83
2019-02-06T00:58:03.132Z,911.80
2019-02-06T00:59:03.120Z,911.86
2019-02-06T01:00:03.112Z,911.85
2019-02-06T01:01:03.042Z,911.85
2019-02-06T01:02:03.026Z,911.85
2019-02-06T01:03:02.993Z,911.87
2019-02-06T01:04:02.940Z,911.87
2019-02-06T01:05:02.906Z,911.87
2019-02-06T01:06:03.287Z,911.91
2019-02-06T01:07:02.839Z,911.89
2019-02-06T01:08:02.827Z,911.92
2019-02-06T01:09:02.819Z,911.94
2019-02-06T01:10:02.797Z,911.94
2019-02-06T01:11:02.754Z,911.99
2019-02-06T01:12:02.830Z,911.99
2019-02-06T01:13:02.696Z,911.99
2019-02-06T01:14:02.683Z,912.02
2019-02-06T01:15:02.589Z,912.00
2019-02-06T01:16:02.615Z,912.02
2019-02-06T01:17:02.577Z,912.02
2019-02-06T01:18:02.533Z,912.02
2019-02-06T01:19:02.476Z,912.03
2019-02-06T01:20:02.435Z,912.04
2019-02-06T01:21:02.410Z,912.06
2019-02-06T01:22:02.425Z,912.08
2019-02-06T01:23:02.378Z,912.09
2019-02-06T01:24:02.378Z,912.08
2019-02-06T01:25:02.353Z,912.05
2019-02-06T01:26:02.297Z,912.09
2019-02-06T01:27:02.257Z,912.14
2019-02-06T01:28:02.469Z,912.08
2019-02-06T01:29:02.195Z,912.12
2019-02-06T01:30:02.150Z,912.15
2019-02-06T01:31:02.115Z,912.12
2019-02-06T01:32:02.102Z,912.12
2019-02-06T01:33:02.051Z,912.14
2019-02-06T01:34:02.035Z,912.14
2019-02-06T01:35:02.012Z,912.13
2019-02-06T01:36:01.966Z,912.17
2019-02-06T01:37:01.933Z,912.15
2019-02-06T01:38:01.900Z,912.19
2019-02-06T01:39:01.870Z,912.22
2019-02-06T01:40:01.845Z,912.26
2019-02-06T01:41:01.815Z,912.26
2019-02-06T01:42:01.770Z,912.26
2019-02-06T01:43:01.737Z,912.29
2019-02-06T01:44:01.732Z,912.26
2019-02-06T01:45:01.646Z,912.28
2019-02-06T01:46:01.613Z,912.28
2019-02-06T01:47:01.584Z,912.35
2019-02-06T01:48:01.547Z,912.37
2019-02-06T01:49:01.493Z,912.38
2019-02-06T01:50:01.452Z,912.37
2019-02-06T01:51:01.451Z,912.36
2019-02-06T01:52:01.406Z,912.35
2019-02-06T01:53:01.523Z,912.34
2019-02-06T01:54:01.369Z,912.34
2019-02-06T03:21:10.799Z,911.51
2019-02-06T03:22:10.769Z,911.50
2019-02-06T03:23:11.043Z,911.50
2019-02-06T03:24:10.702Z,911.49
2019-02-06T03:25:10.668Z,911.49
2019-02-06T03:26:10.648Z,911.52
2019-02-06T03:27:10.620Z,911.46
2019-02-06T03:28:10.841Z,911.45
2019-02-06T03:29:10.590Z,911.43
2019-02-06T03:30:10.518Z,911.38
2019-02-06T03:31:10.498Z,911.35
2019-02-06T03:32:10.479Z,911.31
2019-02-06T03:33:10.599Z,911.29
2019-02-06T03:34:10.421Z,911.30
2019-02-06T03:35:10.380Z,911.28
2019-02-06T03:36:10.364Z,911.25
2019-02-06T03:37:10.326Z,911.21
2019-02-06T03:38:10.302Z,911.22
2019-02-06T03:39:10.264Z,911.21
2019-02-06T03:40:10.289Z,911.14
2019-02-06T03:41:10.193Z,911.14
2019-02-06T03:42:10.151Z,911.15
2019-02-06T03:43:10.348Z,911.11
2019-02-06T03:44:10.117Z,911.09
2019-02-06T03:45:10.041Z,911.09
2019-02-06T03:46:10.014Z,911.08
2019-02-06T03:47:09.986Z,911.06
2019-02-06T03:48:10.019Z,911.07
2019-02-06T03:49:09.932Z,911.08
2019-02-06T03:50:09.882Z,911.07
2019-02-06T03:51:09.857Z,911.09
2019-02-06T03:52:09.834Z,911.08
2019-02-06T03:53:09.788Z,911.06
2019-02-06T03:54:09.828Z,911.05
2019-02-06T03:55:09.735Z,911.04
2019-02-06T03:56:09.733Z,910.97
2019-02-06T03:57:09.682Z,910.98
2019-02-06T03:58:09.948Z,910.97
2019-02-06T03:59:09.595Z,910.96
2019-02-06T04:00:09.560Z,911.00
2019-02-06T04:01:11.388Z,910.96
2019-02-06T04:02:09.519Z,910.96
2019-02-06T04:03:09.502Z,910.91
2019-02-06T04:04:09.442Z,910.90
2019-02-06T04:05:09.414Z,910.91
2019-02-06T04:06:09.359Z,910.95
2019-02-06T04:07:09.363Z,910.87
2019-02-06T04:08:09.317Z,910.84
2019-02-06T04:09:09.340Z,910.86
2019-02-06T04:10:09.247Z,910.86
2019-02-06T04:11:09.196Z,910.87
2019-02-06T04:12:09.187Z,910.85
2019-02-06T04:13:09.173Z,910.86
2019-02-06T04:14:09.114Z,910.84
2019-02-06T04:15:11.874Z,910.84
2019-02-06T04:16:09.059Z,910.81
2019-02-06T04:17:08.997Z,910.84
2019-02-06T04:18:08.995Z,910.86
2019-02-06T04:19:08.957Z,910.84
2019-02-06T04:20:08.910Z,910.82
2019-02-06T04:21:08.957Z,910.83
2019-02-06T04:22:08.845Z,910.82
2019-02-06T04:23:08.824Z,910.82
2019-02-06T04:24:08.789Z,910.79
2019-02-06T04:25:08.758Z,910.76
2019-02-06T04:26:08.739Z,910.76
2019-02-06T04:27:08.705Z,910.73
2019-02-06T04:28:08.688Z,910.71
2019-02-06T04:29:08.636Z,910.69
2019-02-06T04:30:08.610Z,910.69
2019-02-06T04:31:08.765Z,910.70
2019-02-06T04:32:08.531Z,910.65
2019-02-06T04:33:08.502Z,910.65
2019-02-06T04:34:08.474Z,910.68
2019-02-06T04:35:08.440Z,910.64
2019-02-06T04:36:08.450Z,910.66
2019-02-06T04:37:08.354Z,910.66
2019-02-06T04:38:08.327Z,910.68
2019-02-06T04:39:08.304Z,910.65
2019-02-06T04:40:08.260Z,910.70
2019-02-06T04:41:08.227Z,910.70
2019-02-06T04:42:08.298Z,910.67
2019-02-06T04:43:08.159Z,910.73
2019-02-06T04:44:08.162Z,910.68
2019-02-06T04:45:08.093Z,910.68
2019-02-06T04:46:08.082Z,910.63
2019-02-06T04:47:08.500Z,910.68
2019-02-06T04:48:08.015Z,910.68
2019-02-06T04:49:07.977Z,910.70
2019-02-06T04:50:07.960Z,910.69
2019-02-06T04:51:07.922Z,910.66
2019-02-06T04:52:07.884Z,910.70
2019-02-06T04:53:07.999Z,910.71
2019-02-06T04:54:07.811Z,910.75
2019-02-06T04:55:07.795Z,910.72
2019-02-06T04:56:07.738Z,910.74
2019-02-06T04:57:09.534Z,910.71
2019-02-06T04:58:07.671Z,910.73
2019-02-06T04:59:07.641Z,910.77
2019-02-06T05:00:07.630Z,910.75
2019-02-06T05:01:07.585Z,910.75
2019-02-06T05:02:07.539Z,910.77
2019-02-06T05:03:07.744Z,910.73
2019-02-06T05:04:07.478Z,910.74
2019-02-06T05:05:07.482Z,910.72
2019-02-06T05:06:07.429Z,910.71
2019-02-06T05:07:18.394Z,910.68
2019-02-06T05:08:07.368Z,910.70
2019-02-06T05:09:07.326Z,910.72
2019-02-06T05:10:07.296Z,910.70
2019-02-06T05:11:07.308Z,910.73
2019-02-06T05:12:09.521Z,910.74
2019-02-06T05:13:07.203Z,910.74
2019-02-06T05:14:07.178Z,910.72
2019-02-06T05:15:07.137Z,910.72
2019-02-06T05:16:07.129Z,910.71
2019-02-06T05:17:07.066Z,910.68
2019-02-06T05:18:07.172Z,910.70
2019-02-06T05:19:07.013Z,910.71
2019-02-06T05:20:06.959Z,910.69
2019-02-06T05:21:06.950Z,910.72
2019-02-06T05:22:06.883Z,910.70
2019-02-06T05:23:07.179Z,910.72
2019-02-06T05:24:06.831Z,910.72
2019-02-06T05:25:06.795Z,910.70
2019-02-06T05:26:06.763Z,910.67
2019-02-06T05:27:06.734Z,910.75
2019-02-06T05:28:06.858Z,910.72
2019-02-06T05:29:06.669Z,910.75
2019-02-06T05:30:06.658Z,910.73
2019-02-06T05:31:06.693Z,910.77
2019-02-06T05:32:06.593Z,910.75
2019-02-06T05:33:06.886Z,910.71
2019-02-06T05:34:06.504Z,910.73
2019-02-06T05:35:06.463Z,910.72
2019-02-06T05:36:06.442Z,910.71
2019-02-06T05:37:06.417Z,910.72
2019-02-06T05:38:06.379Z,910.72
2019-02-06T05:39:06.346Z,910.73
2019-02-06T05:40:06.300Z,910.69
2019-02-06T05:41:06.371Z,910.68
2019-02-06T05:42:06.249Z,910.70
2019-02-06T05:43:06.235Z,910.74
2019-02-06T05:44:06.223Z,910.71
2019-02-06T05:45:06.157Z,910.74
2019-02-06T05:46:06.119Z,910.77
2019-02-06T05:47:06.111Z,910.76
2019-02-06T05:48:06.047Z,910.76
2019-02-06T05:49:06.381Z,910.76
2019-02-06T05:50:06.018Z,910.77
2019-02-06T05:51:05.957Z,910.78
2019-02-06T05:52:05.930Z,910.73
2019-02-06T05:53:05.891Z,910.75
2019-02-06T05:54:05.874Z,910.78
2019-02-06T05:55:05.897Z,910.77
2019-02-06T05:56:05.806Z,910.72
2019-02-06T05:57:05.760Z,910.74
2019-02-06T05:58:05.736Z,910.74
2019-02-06T05:59:05.678Z,910.73
2019-02-06T06:00:05.675Z,910.69
2019-02-06T06:01:05.653Z,910.68
2019-02-06T06:02:05.608Z,910.68
2019-02-06T06:03:05.571Z,910.68
2019-02-06T06:04:05.546Z,910.63
2019-02-06T06:05:05.691Z,910.64
2019-02-06T06:06:05.471Z,910.65
2019-02-06T06:07:05.424Z,910.60
2019-02-06T06:08:05.416Z,910.62
2019-02-06T06:09:05.364Z,910.62
2019-02-06T06:10:05.345Z,910.64
2019-02-06T06:11:05.351Z,910.62
2019-02-06T06:12:05.255Z,910.65
2019-02-06T06:13:05.257Z,910.61
2019-02-06T06:14:05.210Z,910.60
2019-02-06T06:15:05.165Z,910.63
2019-02-06T06:16:05.286Z,910.64
2019-02-06T06:17:05.126Z,910.61
2019-02-06T06:18:05.092Z,910.63
2019-02-06T06:19:05.050Z,910.68
2019-02-06T06:20:05.052Z,910.66
2019-02-06T06:21:05.084Z,910.65
2019-02-06T06:22:04.945Z,910.65
2019-02-06T06:23:04.912Z,910.67
2019-02-06T06:24:04.889Z,910.68
2019-02-06T06:25:04.866Z,910.66
2019-02-06T06:26:05.021Z,910.68
2019-02-06T06:27:04.794Z,910.64
2019-02-06T06:28:04.756Z,910.64
2019-02-06T06:29:04.721Z,910.57
2019-02-06T06:30:04.695Z,910.57
2019-02-06T06:31:05.129Z,910.54
2019-02-06T06:32:04.618Z,910.53
2019-02-06T06:33:04.592Z,910.51
2019-02-06T06:34:04.555Z,910.48
2019-02-06T06:35:04.524Z,910.48
2019-02-06T06:36:04.508Z,910.49
2019-02-06T06:37:04.461Z,910.49
2019-02-06T06:38:04.444Z,910.51
2019-02-06T06:39:04.381Z,910.53
2019-02-06T06:40:04.351Z,910.53
2019-02-06T06:41:04.329Z,910.50
2019-02-06T06:42:04.286Z,910.50
2019-02-06T06:43:04.265Z,910.49
2019-02-06T06:44:04.214Z,910.43
2019-02-06T06:45:04.173Z,910.44
2019-02-06T06:46:04.168Z,910.46
2019-02-06T06:47:04.265Z,910.45
2019-02-06T06:48:04.102Z,910.47
2019-02-06T06:49:04.067Z,910.48
2019-02-06T06:50:04.016Z,910.48
2019-02-06T06:51:03.998Z,910.47
2019-02-06T06:52:04.179Z,910.50
2019-02-06T06:53:03.928Z,910.51
2019-02-06T06:54:03.906Z,910.48
2019-02-06T06:55:03.847Z,910.49
2019-02-06T06:56:03.826Z,910.52
2019-02-06T06:57:04.011Z,910.49
2019-02-06T06:58:03.758Z,910.53
2019-02-06T06:59:03.740Z,910.52
2019-02-06T07:00:03.705Z,910.54
2019-02-06T07:01:03.674Z,910.55
2019-02-06T07:02:04.941Z,910.55
2019-02-06T07:03:03.604Z,910.57
2019-02-06T07:04:03.570Z,910.59
2019-02-06T07:05:05.563Z,910.55
2019-02-06T07:06:03.503Z,910.59
2019-02-06T07:07:03.478Z,910.59
2019-02-06T07:08:11.148Z,910.62
2019-02-06T07:09:03.402Z,910.61
2019-02-06T07:10:03.372Z,910.63
2019-02-06T07:11:03.373Z,910.63
2019-02-06T07:12:03.317Z,910.63
2019-02-06T07:13:03.266Z,910.64
2019-02-06T07:14:03.251Z,910.62
2019-02-06T07:15:03.210Z,910.61
2019-02-06T07:16:03.203Z,910.66
2019-02-06T07:17:03.181Z,910.62
2019-02-06T07:18:03.110Z,910.63
2019-02-06T07:19:03.352Z,910.67
2019-02-06T07:20:03.047Z,910.65
2019-02-06T07:21:03.018Z,910.63
2019-02-06T07:22:02.991Z,910.62
2019-02-06T07:23:02.954Z,910.60
2019-02-06T07:24:03.176Z,910.63
2019-02-06T07:25:02.901Z,910.62
2019-02-06T07:26:02.867Z,910.58
2019-02-06T07:27:02.809Z,910.61
2019-02-06T07:28:02.801Z,910.58
2019-02-06T07:29:02.918Z,910.61
2019-02-06T07:30:02.758Z,910.57
2019-02-06T07:31:02.699Z,910.57
2019-02-06T07:32:02.727Z,910.63
2019-02-06T07:33:02.631Z,910.65
2019-02-06T07:34:03.782Z,910.64
2019-02-06T07:35:02.584Z,910.66
2019-02-06T07:36:02.519Z,910.64
2019-02-06T07:37:02.500Z,910.74
2019-02-06T07:38:02.453Z,910.72
2019-02-06T07:39:02.427Z,910.71
2019-02-06T07:40:02.586Z,910.73
2019-02-06T07:41:02.369Z,910.72
2019-02-06T07:42:02.337Z,910.75
2019-02-06T07:43:02.294Z,910.80
2019-02-06T07:44:02.266Z,910.80
2019-02-06T07:45:02.210Z,910.81
2019-02-06T07:46:02.182Z,910.84
2019-02-06T07:47:02.173Z,910.87
2019-02-06T07:48:02.131Z,910.82
2019-02-06T07:49:02.119Z,910.87
2019-02-06T07:50:02.051Z,910.83
2019-02-06T07:51:02.041Z,910.83
2019-02-06T07:52:01.983Z,910.86
2019-02-06T07:53:02.031Z,910.84
2019-02-06T07:54:02.035Z,910.87
2019-02-06T07:55:01.918Z,910.83
2019-02-06T07:56:01.863Z,910.85
2019-02-06T07:57:01.867Z,910.86
2019-02-06T07:58:01.807Z,910.86
2019-02-06T07:59:01.874Z,910.86
2019-02-06T08:00:01.741Z,910.84
2019-02-06T08:01:01.734Z,910.80
2019-02-06T08:02:01.716Z,910.78
2019-02-06T08:03:01.649Z,910.78
2019-02-06T08:04:01.743Z,910.77
2019-02-06T08:05:01.614Z,910.76
2019-02-06T08:06:01.547Z,910.78
2019-02-06T08:07:01.507Z,910.75
2019-02-06T08:08:01.464Z,910.76
2019-02-06T08:09:01.587Z,910.75
2019-02-06T08:10:01.521Z,910.73
2019-02-06T08:11:03.123Z,910.72
2019-02-06T08:12:01.355Z,910.70
2019-02-06T08:13:01.307Z,910.69
2019-02-06T08:14:01.379Z,910.68
2019-02-06T08:15:01.260Z,910.70
2019-02-06T08:16:01.196Z,910.70
2019-02-06T08:17:01.189Z,910.73
2019-02-06T08:18:01.159Z,910.71
2019-02-06T08:19:01.308Z,910.70
2019-02-06T08:20:01.093Z,910.67
2019-02-06T08:21:01.049Z,910.69
2019-02-06T08:22:01.029Z,910.68
2019-02-06T08:23:00.992Z,910.71
2019-02-06T08:24:01.271Z,910.65
2019-02-06T08:25:01.053Z,910.61
2019-02-06T08:26:00.891Z,910.64
2019-02-06T08:27:00.864Z,910.65
2019-02-06T08:28:00.823Z,910.66
2019-02-06T08:29:00.957Z,910.64
2019-02-06T08:30:00.778Z,910.64
2019-02-06T08:31:00.730Z,910.66
2019-02-06T08:32:00.674Z,910.70
2019-02-06T08:33:00.647Z,910.69
2019-02-06T08:34:00.663Z,910.70
2019-02-06T08:35:00.603Z,910.72
2019-02-06T08:36:00.552Z,910.71
2019-02-06T08:37:00.529Z,910.74
2019-02-06T08:38:00.493Z,910.77
2019-02-06T08:39:00.456Z,910.75
2019-02-06T08:40:00.483Z,910.78
2019-02-06T08:41:00.393Z,910.79
2019-02-06T08:42:00.353Z,910.83
2019-02-06T08:43:00.328Z,910.79
2019-02-06T08:44:01.877Z,910.79
2019-02-06T08:45:00.371Z,910.81
2019-02-06T08:46:00.372Z,910.81
2019-02-06T08:47:00.176Z,910.84
2019-02-06T08:48:00.163Z,910.86
2019-02-06T08:49:00.145Z,910.88
2019-02-06T08:50:00.099Z,910.88
2019-02-06T08:51:00.074Z,910.93
2019-02-06T08:52:00.037Z,910.98
2019-02-06T08:52:59.983Z,910.95
2019-02-06T08:54:00.039Z,911.00
2019-02-06T08:54:59.936Z,911.01
2019-02-06T08:55:59.896Z,911.02
2019-02-06T08:56:59.870Z,911.05
2019-02-06T08:57:59.860Z,911.07
2019-02-06T08:58:59.795Z,911.07
2019-02-06T08:59:59.766Z,911.04
2019-02-06T09:00:59.754Z,911.06
2019-02-06T09:01:59.717Z,911.05
2019-02-06T09:02:59.690Z,911.04
2019-02-06T09:03:59.653Z,911.03
2019-02-06T09:04:59.622Z,911.04
2019-02-06T09:05:59.562Z,911.05
2019-02-06T09:06:59.554Z,911.05
2019-02-06T09:07:59.814Z,911.04
2019-02-06T09:09:00.168Z,911.02
2019-02-06T09:09:59.473Z,911.05
2019-02-06T09:10:59.412Z,911.07
2019-02-06T09:11:59.377Z,911.01
2019-02-06T09:12:59.351Z,911.04
2019-02-06T09:13:59.306Z,910.97
2019-02-06T09:14:59.285Z,911.02
2019-02-06T09:15:59.235Z,911.04
2019-02-06T09:16:59.193Z,911.05
2019-02-06T09:17:59.205Z,911.04
2019-02-06T09:18:59.304Z,911.05
2019-02-06T09:19:59.119Z,911.00
2019-02-06T09:20:59.066Z,911.03
2019-02-06T09:21:59.044Z,911.01
2019-02-06T09:22:59.020Z,911.04
2019-02-06T09:23:58.988Z,911.02
2019-02-06T09:24:59.009Z,911.04
2019-02-06T09:25:58.932Z,911.07
2019-02-06T09:26:58.883Z,911.11
2019-02-06T09:27:58.851Z,911.12
2019-02-06T09:28:58.868Z,911.16
2019-02-06T09:29:58.798Z,911.14
2019-02-06T09:30:58.762Z,911.15
2019-02-06T09:31:59.447Z,911.17
2019-02-06T09:32:58.692Z,911.19
2019-02-06T09:33:58.656Z,911.21
2019-02-06T09:34:58.602Z,911.20
2019-02-06T09:36:58.559Z,911.23
2019-02-06T09:37:58.511Z,911.21
2019-02-06T09:38:58.621Z,911.22
2019-02-06T09:39:58.451Z,911.24
2019-02-06T09:40:58.426Z,911.21
2019-02-06T09:41:58.401Z,911.24
2019-02-06T09:42:58.356Z,911.26
2019-02-06T09:43:58.324Z,911.24
2019-02-06T09:44:58.296Z,911.29
2019-02-06T09:45:58.267Z,911.29
2019-02-06T09:46:58.571Z,911.29
2019-02-06T09:47:58.195Z,911.33
2019-02-06T09:48:58.140Z,911.32
2019-02-06T09:49:58.124Z,911.33
2019-02-06T09:50:58.092Z,911.36
2019-02-06T09:51:58.039Z,911.36
2019-02-06T09:52:58.032Z,911.38
2019-02-06T09:53:57.993Z,911.34
2019-02-06T09:54:57.951Z,911.38
2019-02-06T09:55:57.909Z,911.42
2019-02-06T09:56:57.904Z,911.42
2019-02-06T09:57:57.925Z,911.47
2019-02-06T09:58:57.835Z,911.51
2019-02-06T09:59:57.809Z,911.52
2019-02-06T10:00:57.767Z,911.56
2019-02-06T10:01:57.723Z,911.58
2019-02-06T10:02:57.806Z,911.62
2019-02-06T10:03:57.792Z,911.63
2019-02-06T10:04:57.644Z,911.64
2019-02-06T10:05:57.590Z,911.66
2019-02-06T10:06:57.564Z,911.63
2019-02-06T10:07:57.549Z,911.67
2019-02-06T10:08:57.652Z,911.60
2019-02-06T10:09:57.984Z,911.64
2019-02-06T10:10:57.444Z,911.61
2019-02-06T10:11:57.413Z,911.64
2019-02-06T10:12:57.380Z,911.66
2019-02-06T10:13:57.343Z,911.64
2019-02-06T10:14:57.322Z,911.68
2019-02-06T10:15:57.308Z,911.70
2019-02-06T10:16:57.259Z,911.74
2019-02-06T10:17:57.208Z,911.73
2019-02-06T10:18:57.177Z,911.67
2019-02-06T10:19:57.154Z,911.70
2019-02-06T10:20:57.117Z,911.69
2019-02-06T10:21:57.081Z,911.73
2019-02-06T10:22:57.061Z,911.76
2019-02-06T10:23:57.025Z,911.77
2019-02-06T10:24:56.984Z,911.77
2019-02-06T10:25:56.939Z,911.77
2019-02-06T10:26:56.930Z,911.80
2019-02-06T10:27:56.892Z,911.77
2019-02-06T10:28:56.868Z,911.84
2019-02-06T10:29:56.824Z,911.82
2019-02-06T10:30:56.788Z,911.84
2019-02-06T10:31:56.749Z,911.86
2019-02-06T10:32:56.739Z,911.90
2019-02-06T10:33:56.737Z,911.91
2019-02-06T10:34:56.662Z,911.99
2019-02-06T10:35:56.636Z,912.04
2019-02-06T10:36:56.595Z,912.10
2019-02-06T10:37:56.576Z,912.15
2019-02-06T10:38:56.538Z,912.17
2019-02-06T10:39:58.582Z,912.20
2019-02-06T10:40:56.453Z,912.22
2019-02-06T10:41:56.437Z,912.22
2019-02-06T10:42:56.395Z,912.25
2019-02-06T10:43:56.442Z,912.30
2019-02-06T10:44:56.335Z,912.34
2019-02-06T10:45:56.463Z,912.38
2019-02-06T10:46:56.311Z,912.39
2019-02-06T10:47:56.241Z,912.37
2019-02-06T10:48:56.186Z,912.41
2019-02-06T10:49:56.164Z,912.37
2019-02-06T10:50:58.271Z,912.40
2019-02-06T10:51:56.255Z,912.40
2019-02-06T10:52:56.079Z,912.43
2019-02-06T10:53:56.064Z,912.39
2019-02-06T10:54:56.013Z,912.42
2019-02-06T10:55:55.982Z,912.39
2019-02-06T10:56:55.946Z,912.35
2019-02-06T10:57:55.916Z,912.36
2019-02-06T10:58:55.873Z,912.38
2019-02-06T10:59:55.869Z,912.37
2019-02-06T11:00:55.817Z,912.36
2019-02-06T11:01:55.788Z,912.39
2019-02-06T11:02:55.745Z,912.37
2019-02-06T11:03:55.718Z,912.40
2019-02-06T11:04:55.695Z,912.38
2019-02-06T11:05:55.672Z,912.39
2019-02-06T11:06:55.634Z,912.37
2019-02-06T11:07:55.597Z,912.44
2019-02-06T11:08:55.638Z,912.45
2019-02-06T11:09:55.522Z,912.46
2019-02-06T11:10:55.486Z,912.45
2019-02-06T11:11:55.479Z,912.48
2019-02-06T11:12:55.436Z,912.47
2019-02-06T11:13:55.448Z,912.48
2019-02-06T11:14:55.364Z,912.52
2019-02-06T11:15:55.343Z,912.54
2019-02-06T11:16:55.300Z,912.50
2019-02-06T11:17:55.274Z,912.52
2019-02-06T11:18:55.363Z,912.53
2019-02-06T11:19:55.496Z,912.56
2019-02-06T11:20:55.180Z,912.56
2019-02-06T11:21:55.145Z,912.61
2019-02-06T11:22:55.095Z,912.65
2019-02-06T11:23:55.075Z,912.64
2019-02-06T11:24:55.243Z,912.63
2019-02-06T11:25:55.018Z,912.65
2019-02-06T11:26:54.994Z,912.68
2019-02-06T11:27:54.963Z,912.66
2019-02-06T11:28:54.919Z,912.66
2019-02-06T11:30:57.131Z,912.64
2019-02-06T11:31:54.813Z,912.66
2019-02-06T11:32:54.793Z,912.66
2019-02-06T11:33:54.770Z,912.74
2019-02-06T11:34:54.720Z,912.73
2019-02-06T11:35:54.676Z,912.75
2019-02-06T11:36:54.675Z,912.75
2019-02-06T11:37:54.627Z,912.79
2019-02-06T11:38:54.601Z,912.76
2019-02-06T11:39:58.100Z,912.77
2019-02-06T11:40:54.689Z,912.82
2019-02-06T11:41:54.487Z,912.82
2019-02-06T11:42:54.483Z,912.83
2019-02-06T11:43:54.424Z,912.83
2019-02-06T11:44:54.398Z,912.84
2019-02-06T11:45:54.379Z,912.82
2019-02-06T11:46:54.717Z,912.84
2019-02-06T11:47:54.305Z,912.84
2019-02-06T11:48:54.284Z,912.84
2019-02-06T11:49:54.242Z,912.83
2019-02-06T11:50:54.220Z,912.88
2019-02-06T11:51:54.207Z,912.89
2019-02-06T11:52:54.348Z,912.88
2019-02-06T11:53:54.092Z,912.87
2019-02-06T11:54:54.085Z,912.91
2019-02-06T11:55:54.114Z,912.91
2019-02-06T11:56:54.013Z,912.93
2019-02-06T11:57:53.972Z,912.94
2019-02-06T11:58:53.966Z,912.91
2019-02-06T11:59:53.925Z,912.92
2019-02-06T12:00:53.928Z,912.95
2019-02-06T12:01:53.853Z,912.98
2019-02-06T12:02:53.820Z,912.98
2019-02-06T12:03:53.836Z,912.99
2019-02-06T12:04:53.795Z,913.00
2019-02-06T12:05:53.728Z,913.02
2019-02-06T12:06:53.699Z,913.03
2019-02-06T12:07:53.666Z,912.98
2019-02-06T12:08:53.635Z,913.07
2019-02-06T12:09:53.622Z,913.09
2019-02-06T12:10:53.579Z,913.11
2019-02-06T12:11:53.570Z,913.16
2019-02-06T12:12:53.496Z,913.21
2019-02-06T12:13:53.490Z,913.21
2019-02-06T12:14:53.430Z,913.27
2019-02-06T12:15:53.443Z,913.31
2019-02-06T12:16:53.399Z,913.32
2019-02-06T12:17:53.351Z,913.23
2019-02-06T12:18:53.467Z,913.22
2019-02-06T12:19:53.295Z,913.20
2019-02-06T12:20:53.252Z,913.19
2019-02-06T12:21:53.239Z,913.21
2019-02-06T12:22:53.208Z,913.21
2019-02-06T12:23:53.158Z,913.18
2019-02-06T12:25:53.112Z,913.25
2019-02-06T12:26:53.116Z,913.26
2019-02-06T12:27:53.033Z,913.25
2019-02-06T12:28:53.014Z,913.31
2019-02-06T12:29:52.979Z,913.38
2019-02-06T12:30:56.040Z,913.34
2019-02-06T12:32:26.199Z,913.44
2019-02-06T12:32:52.887Z,913.46
2019-02-06T12:33:53.063Z,913.42
2019-02-06T12:34:52.849Z,913.38
2019-02-06T12:35:52.783Z,913.38
2019-02-06T12:36:52.758Z,913.33
2019-02-06T12:37:52.716Z,913.40
2019-02-06T12:38:53.861Z,913.39
2019-02-06T12:39:52.665Z,913.39
2019-02-06T12:40:52.638Z,913.38
2019-02-06T12:41:52.613Z,913.32
2019-02-06T12:42:52.574Z,913.32
2019-02-06T12:43:52.544Z,913.30
2019-02-06T12:44:52.580Z,913.29
2019-02-06T12:45:52.491Z,913.35
2019-02-06T12:46:52.460Z,913.39
2019-02-06T12:47:52.428Z,913.47
2019-02-06T12:48:52.406Z,913.43
2019-02-06T12:49:52.375Z,913.45
2019-02-06T12:50:52.502Z,913.41
2019-02-06T12:51:52.590Z,913.40
2019-02-06T12:52:52.286Z,913.37
2019-02-06T12:53:52.245Z,913.33
2019-02-06T12:54:52.228Z,913.37
2019-02-06T12:55:52.194Z,913.35
2019-02-06T12:56:52.304Z,913.42
2019-02-06T12:57:52.123Z,913.45
2019-02-06T12:58:52.105Z,913.44
2019-02-06T12:59:52.076Z,913.41
2019-02-06T13:00:52.033Z,913.42
2019-02-06T13:01:52.011Z,913.43
2019-02-06T13:02:51.990Z,913.47
2019-02-06T13:03:51.940Z,913.45
2019-02-06T13:04:51.918Z,913.44
2019-02-06T13:05:51.901Z,913.47
2019-02-06T13:06:51.867Z,913.56
2019-02-06T13:07:51.838Z,913.48
2019-02-06T13:08:51.909Z,913.42
2019-02-06T13:09:51.751Z,913.39
2019-02-06T13:10:51.726Z,913.36
2019-02-06T13:11:51.730Z,913.35
2019-02-06T13:12:51.717Z,913.30
2019-02-06T13:13:51.661Z,913.31
2019-02-06T13:14:51.747Z,913.31
2019-02-06T13:15:51.599Z,913.27
2019-02-06T13:16:51.553Z,913.25
2019-02-06T13:17:51.699Z,913.28
2019-02-06T13:18:51.502Z,913.26
2019-02-06T13:19:51.474Z,913.30
2019-02-06T13:20:51.609Z,913.31
2019-02-06T13:21:51.409Z,913.35
2019-02-06T13:22:51.369Z,913.31
2019-02-06T13:23:51.550Z,913.31
2019-02-06T13:24:51.328Z,913.32
2019-02-06T13:25:51.310Z,913.30
2019-02-06T13:26:51.260Z,913.29
2019-02-06T13:27:51.252Z,913.25
2019-02-06T13:28:51.214Z,913.26
2019-02-06T13:30:51.158Z,913.27
2019-02-06T13:31:51.121Z,913.29
2019-02-06T13:32:51.079Z,913.31
2019-02-06T13:33:51.073Z,913.31
2019-02-06T13:34:51.043Z,913.26
2019-02-06T13:35:51.009Z,913.23
2019-02-06T13:36:50.967Z,913.22
2019-02-06T13:37:50.931Z,913.19
2019-02-06T13:38:50.916Z,913.18
2019-02-06T13:39:50.880Z,913.18
2019-02-06T13:40:50.847Z,913.09
2019-02-06T13:41:50.832Z,913.08
2019-02-06T13:42:50.768Z,913.09
2019-02-06T13:43:50.774Z,913.05
2019-02-06T13:44:50.752Z,913.02
2019-02-06T13:45:50.719Z,913.01
2019-02-06T13:46:53.305Z,912.96
2019-02-06T13:47:50.682Z,912.95
2019-02-06T13:48:50.603Z,912.92
2019-02-06T13:49:50.590Z,912.91
2019-02-06T13:50:50.538Z,912.92
2019-02-06T13:51:50.503Z,912.88
2019-02-06T13:52:50.490Z,912.88
2019-02-06T13:53:50.472Z,912.87
2019-02-06T13:54:50.428Z,912.86
2019-02-06T13:55:50.571Z,912.89
2019-02-06T13:56:50.394Z,912.93
2019-02-06T13:57:50.322Z,912.91